createdAt,value
2019-02-09T00:00:31.503Z,57.30
2019-02-09T00:03:09.210Z,62.25
2019-02-09T00:05:45.874Z,57.30
2019-02-09T00:08:22.664Z,53.25
2019-02-09T00:10:59.439Z,51.83
2019-02-09T00:13:36.282Z,59.27
2019-02-09T00:16:13.091Z,55.45
2019-02-09T00:18:49.870Z,54.27
2019-02-09T00:21:26.852Z,49.55
2019-02-09T00:24:03.522Z,45.50
2019-02-09T00:26:40.297Z,43.60
2019-02-09T00:29:17.182Z,42.95
2019-02-09T00:31:54.148Z,47.10
2019-02-09T00:34:30.929Z,42.45
2019-02-09T00:37:07.705Z,45.08
2019-02-09T00:39:44.477Z,48.65
2019-02-09T00:42:21.363Z,50.12
2019-02-09T00:44:58.131Z,45.03
2019-02-09T00:47:36.132Z,49.40
2019-02-09T00:50:15.671Z,50.10
2019-02-09T00:52:52.543Z,45.98
2019-02-09T00:55:29.736Z,50.92
2019-02-09T00:58:06.508Z,41.18
2019-02-09T01:00:43.281Z,46.33
2019-02-09T01:03:20.274Z,47.17
2019-02-09T01:05:57.049Z,57.35
2019-02-09T01:08:34.535Z,48.60
2019-02-09T01:11:11.318Z,49.95
2019-02-09T01:13:49.104Z,50.10
2019-02-09T01:19:23.045Z,45.15
2019-02-09T01:22:37.214Z,51.55
2019-02-09T01:25:58.001Z,44.75
2019-02-09T01:29:06.159Z,55.83
2019-02-09T01:34:40.245Z,38.60
2019-02-09T01:37:17.318Z,43.60
2019-02-09T01:43:18.707Z,36.23
2019-02-09T01:45:55.407Z,39.45
2019-02-09T01:48:32.258Z,37.10
2019-02-09T01:51:09.030Z,38.38
2019-02-09T01:53:45.791Z,39.18
2019-02-09T01:56:22.573Z,41.48
2019-02-09T01:58:59.344Z,38.28
2019-02-09T02:01:36.230Z,38.78
2019-02-09T02:04:13.012Z,38.17
2019-02-09T02:06:49.980Z,37.17
2019-02-09T02:09:26.763Z,36.98
2019-02-09T02:12:04.057Z,45.73
2019-02-09T02:14:40.825Z,46.98
2019-02-09T02:17:17.597Z,40.58
2019-02-09T02:19:54.383Z,37.75
2019-02-09T02:22:31.243Z,39.85
2019-02-09T02:25:09.195Z,40.90
2019-02-09T02:27:45.936Z,39.42
2019-02-09T02:30:29.064Z,38.85
2019-02-09T02:33:08.493Z,38.88
2019-02-09T02:35:45.275Z,39.88
2019-02-09T02:38:22.050Z,38.70
2019-02-09T02:40:58.833Z,37.98
2019-02-09T02:43:35.695Z,38.83
2019-02-09T02:46:12.479Z,38.90
2019-02-09T02:48:49.463Z,37.75
2019-02-09T02:51:26.229Z,37.38
2019-02-09T02:54:03.006Z,39.83
2019-02-09T02:56:39.779Z,35.43
2019-02-09T02:59:16.558Z,37.00
2019-02-09T03:01:53.444Z,39.75
2019-02-09T03:04:30.317Z,35.65
2019-02-09T03:07:07.091Z,33.53
2019-02-09T03:09:43.824Z,36.58
2019-02-09T03:12:20.642Z,40.23
2019-02-09T03:14:57.424Z,39.05
2019-02-09T03:17:34.181Z,40.28
2019-02-09T03:20:14.387Z,34.77
2019-02-09T03:22:51.121Z,33.98
2019-02-09T03:25:30.746Z,36.15
2019-02-09T03:28:07.544Z,35.55
2019-02-09T03:30:48.364Z,33.08
2019-02-09T03:33:22.982Z,34.50
2019-02-09T03:35:59.815Z,35.40
2019-02-09T03:38:36.568Z,32.67
2019-02-09T03:41:13.425Z,31.05
2019-02-09T03:43:54.271Z,32.38
2019-02-09T03:46:36.547Z,35.13
2019-02-09T03:49:17.816Z,32.48
2019-02-09T03:54:56.405Z,32.20
2019-02-09T03:58:10.614Z,34.33
2019-02-09T04:01:01.764Z,34.50
2019-02-09T04:04:14.699Z,51.27
2019-02-09T04:06:55.319Z,64.85
2019-02-09T04:09:36.439Z,58.23
2019-02-09T04:12:21.355Z,58.13
2019-02-09T04:15:03.261Z,55.92
2019-02-09T04:20:29.843Z,50.00
2019-02-09T04:23:07.803Z,52.58
2019-02-09T04:25:44.594Z,40.05
2019-02-09T04:28:21.360Z,38.60
2019-02-09T04:31:05.500Z,33.55
2019-02-09T04:33:36.662Z,32.23
2019-02-09T04:36:13.432Z,30.23
2019-02-09T04:38:50.215Z,30.20
2019-02-09T04:41:26.987Z,29.50
2019-02-09T04:44:03.794Z,27.67
2019-02-09T04:46:40.637Z,26.62
2019-02-09T04:49:17.413Z,28.62
2019-02-09T04:51:54.299Z,28.35
2019-02-09T04:54:31.065Z,28.23
2019-02-09T04:57:07.845Z,28.62
2019-02-09T04:59:44.606Z,28.30
2019-02-09T05:02:50.467Z,30.45
2019-02-09T05:05:50.835Z,28.23
2019-02-09T05:08:44.780Z,29.45
2019-02-09T05:11:24.596Z,28.42
2019-02-09T05:14:25.933Z,29.50
2019-02-09T05:17:24.773Z,27.45
2019-02-09T05:20:01.575Z,26.48
2019-02-09T05:22:38.420Z,27.55
2019-02-09T05:25:16.073Z,27.75
2019-02-09T05:27:53.931Z,25.80
2019-02-09T05:30:31.127Z,27.27
2019-02-09T05:33:07.987Z,29.00
2019-02-09T05:35:44.647Z,29.25
2019-02-09T05:38:21.438Z,25.88
2019-02-09T05:40:58.212Z,25.85
2019-02-09T05:43:35.089Z,25.70
2019-02-09T05:46:13.288Z,27.87
2019-02-09T05:48:50.487Z,24.63
2019-02-09T05:51:27.149Z,23.92
2019-02-09T05:54:06.647Z,23.22
2019-02-09T05:56:48.433Z,23.95
2019-02-09T05:59:28.436Z,21.93
2019-02-09T06:02:08.199Z,22.25
2019-02-09T06:04:50.237Z,21.65
2019-02-09T06:07:30.811Z,23.57
2019-02-09T06:10:14.186Z,21.62
2019-02-09T06:13:06.471Z,20.62
2019-02-09T06:16:11.494Z,21.07
2019-02-09T06:23:17.968Z,21.17
2019-02-09T06:29:49.950Z,22.70
2019-02-09T06:32:37.610Z,22.50
2019-02-09T06:35:14.338Z,21.60
2019-02-09T06:37:52.678Z,21.73
2019-02-09T06:40:29.376Z,21.50
2019-02-09T06:43:06.127Z,23.02
2019-02-09T06:45:42.882Z,23.00
2019-02-09T06:48:26.235Z,22.50
2019-02-09T06:51:02.991Z,22.50
2019-02-09T06:53:40.781Z,21.93
2019-02-09T06:56:17.561Z,21.95
2019-02-09T06:58:54.448Z,21.70
2019-02-09T07:01:31.223Z,21.60
2019-02-09T07:04:08.410Z,22.62
2019-02-09T07:06:45.170Z,22.73
2019-02-09T07:09:21.890Z,21.77
2019-02-09T07:11:59.648Z,21.48
2019-02-09T07:14:36.425Z,21.93
2019-02-09T07:17:13.207Z,21.30
2019-02-09T07:19:49.866Z,20.75
2019-02-09T07:22:26.765Z,22.17
2019-02-09T07:25:03.741Z,21.75
2019-02-09T07:27:40.465Z,23.60
2019-02-09T07:30:33.731Z,23.33
2019-02-09T07:33:14.620Z,23.22
2019-02-09T07:35:56.166Z,22.02
2019-02-09T07:38:32.905Z,21.48
2019-02-09T07:41:09.789Z,23.80
2019-02-09T07:43:46.559Z,21.85
2019-02-09T07:46:23.229Z,21.23
2019-02-09T07:49:00.009Z,22.80
2019-02-09T07:51:36.784Z,22.07
2019-02-09T07:54:13.573Z,23.40
2019-02-09T07:56:50.469Z,21.50
2019-02-09T07:59:27.206Z,21.17
2019-02-09T08:02:04.856Z,22.10
2019-02-09T08:04:42.289Z,21.62
2019-02-09T08:07:19.127Z,21.23
2019-02-09T08:09:56.360Z,21.50
2019-02-09T08:12:33.234Z,21.55
2019-02-09T08:15:19.935Z,22.48
2019-02-09T08:17:56.728Z,20.25
2019-02-09T08:20:51.062Z,20.37
2019-02-09T08:23:27.908Z,20.88
2019-02-09T08:26:04.680Z,22.85
2019-02-09T08:28:41.428Z,22.77
2019-02-09T08:31:18.216Z,20.48
2019-02-09T08:33:54.994Z,20.45
2019-02-09T08:36:31.767Z,21.00
2019-02-09T08:39:08.958Z,21.30
2019-02-09T08:41:45.826Z,21.75
2019-02-09T08:44:22.609Z,20.27
2019-02-09T08:46:59.323Z,20.85
2019-02-09T08:49:36.053Z,20.20
2019-02-09T08:52:12.834Z,20.17
2019-02-09T08:54:50.634Z,20.70
2019-02-09T08:57:27.508Z,20.65
2019-02-09T09:00:09.892Z,21.35
2019-02-09T09:02:46.688Z,20.40
2019-02-09T09:05:23.391Z,23.05
2019-02-09T09:08:00.129Z,22.27
2019-02-09T09:10:36.910Z,22.85
2019-02-09T09:13:13.679Z,22.25
2019-02-09T09:15:55.003Z,22.82
2019-02-09T09:18:31.740Z,22.75
2019-02-09T09:21:09.851Z,24.18
2019-02-09T09:23:46.627Z,26.10
2019-02-09T09:26:23.404Z,27.48
2019-02-09T09:29:00.184Z,26.55
2019-02-09T09:31:36.958Z,25.23
2019-02-09T09:34:13.735Z,25.62
2019-02-09T09:36:51.951Z,28.12
2019-02-09T09:39:28.725Z,24.57
2019-02-09T09:42:05.598Z,23.18
2019-02-09T09:44:42.375Z,29.23
2019-02-09T09:47:20.270Z,27.17
2019-02-09T09:49:57.152Z,25.35
2019-02-09T09:52:43.465Z,23.98
2019-02-09T09:55:30.212Z,25.70
2019-02-09T09:58:13.676Z,24.23
2019-02-09T10:00:51.002Z,25.05
2019-02-09T10:03:27.858Z,25.45
2019-02-09T10:06:04.506Z,24.07
2019-02-09T10:08:41.229Z,24.47
2019-02-09T10:11:17.950Z,25.45
2019-02-09T10:14:08.561Z,25.90
2019-02-09T10:16:54.140Z,24.40
2019-02-09T10:19:42.343Z,25.55
2019-02-09T10:22:22.460Z,25.43
2019-02-09T10:24:59.183Z,25.90
2019-02-09T10:27:35.893Z,26.55
2019-02-09T10:30:34.259Z,27.00
2019-02-09T10:33:10.967Z,26.05
2019-02-09T10:35:47.727Z,24.87
2019-02-09T10:38:24.456Z,25.37
2019-02-09T10:41:01.174Z,26.27
2019-02-09T10:43:38.051Z,26.50
2019-02-09T10:46:15.545Z,24.67
2019-02-09T10:48:52.345Z,25.17
2019-02-09T10:51:29.097Z,24.67
2019-02-09T10:54:05.813Z,24.87
2019-02-09T10:56:42.657Z,24.37
2019-02-09T10:59:19.430Z,22.90
2019-02-09T11:01:56.207Z,22.55
2019-02-09T11:04:32.974Z,22.00
2019-02-09T11:07:09.766Z,21.82
2019-02-09T11:09:46.492Z,21.23
2019-02-09T11:12:23.259Z,20.15
2019-02-09T11:15:01.464Z,21.17
2019-02-09T11:17:38.198Z,21.20
2019-02-09T11:20:18.311Z,21.53
2019-02-09T11:22:55.023Z,21.73
2019-02-09T11:25:31.700Z,23.35
2019-02-09T11:28:08.456Z,22.52
2019-02-09T11:30:45.211Z,23.60
2019-02-09T11:33:21.933Z,24.72
2019-02-09T11:35:59.949Z,24.90
2019-02-09T11:38:36.809Z,24.70
2019-02-09T11:41:13.575Z,23.10
2019-02-09T11:43:50.367Z,22.77
2019-02-09T11:46:27.351Z,23.50
2019-02-09T11:49:04.077Z,24.80
2019-02-09T11:51:40.796Z,18.98
2019-02-09T11:54:17.552Z,18.23
2019-02-09T11:56:54.334Z,17.67
2019-02-09T11:59:31.110Z,17.95
2019-02-09T12:02:08.299Z,17.65
2019-02-09T12:04:45.007Z,16.42
2019-02-09T12:07:21.933Z,17.10
2019-02-09T12:09:58.720Z,18.23
2019-02-09T12:12:35.595Z,16.10
2019-02-09T12:15:33.771Z,15.85
2019-02-09T12:18:13.406Z,15.40
2019-02-09T12:20:50.512Z,14.30
2019-02-09T12:23:27.383Z,14.83
2019-02-09T12:26:04.569Z,17.17
2019-02-09T12:28:41.345Z,17.27
2019-02-09T12:31:18.118Z,14.28
2019-02-09T12:33:54.991Z,14.63
2019-02-09T12:36:31.801Z,17.23
2019-02-09T12:39:09.893Z,31.40
2019-02-09T12:41:46.632Z,16.93
2019-02-09T12:44:23.436Z,16.77
2019-02-09T12:47:00.613Z,17.37
2019-02-09T12:49:37.378Z,16.60
2019-02-09T12:52:14.268Z,16.23
2019-02-09T12:54:51.042Z,14.30
2019-02-09T12:57:27.717Z,13.68
2019-02-09T13:00:07.456Z,12.78
2019-02-09T13:02:44.851Z,14.18
2019-02-09T13:05:21.518Z,12.15
2019-02-09T13:07:58.294Z,12.60
2019-02-09T13:10:35.993Z,12.75
2019-02-09T13:13:12.863Z,13.25
2019-02-09T13:15:49.577Z,13.25
2019-02-09T13:18:26.430Z,12.25
2019-02-09T13:21:03.142Z,13.03
2019-02-09T13:23:39.974Z,12.30
2019-02-09T13:26:16.656Z,12.35
2019-02-09T13:28:53.581Z,13.62
2019-02-09T13:31:30.407Z,13.43
2019-02-09T13:34:08.329Z,14.98
2019-02-09T13:36:45.037Z,19.37
2019-02-09T13:39:21.864Z,19.45
2019-02-09T13:41:58.728Z,21.30
2019-02-09T13:44:35.513Z,21.70
2019-02-09T13:47:12.258Z,21.57
2019-02-09T13:49:49.070Z,21.52
2019-02-09T13:52:25.830Z,20.40
2019-02-09T13:55:02.565Z,22.60
2019-02-09T13:57:39.246Z,22.35
2019-02-09T14:00:25.842Z,21.93
2019-02-09T14:03:03.290Z,21.62
2019-02-09T14:05:40.322Z,19.77
2019-02-09T14:08:17.042Z,20.15
2019-02-09T14:10:53.725Z,19.92
2019-02-09T14:13:30.532Z,20.95
2019-02-09T14:16:08.348Z,20.27
2019-02-09T14:18:45.259Z,17.92
2019-02-09T14:21:21.923Z,20.05
2019-02-09T14:23:58.714Z,19.30
2019-02-09T14:26:35.492Z,19.17
2019-02-09T14:29:12.259Z,22.15
2019-02-09T14:31:49.033Z,22.90
2019-02-09T14:34:25.820Z,27.35
2019-02-09T14:37:04.121Z,26.37
2019-02-09T14:39:40.913Z,29.95
2019-02-09T14:42:17.979Z,25.08
2019-02-09T14:44:54.760Z,30.70
2019-02-09T14:47:31.541Z,29.10
2019-02-09T14:50:12.058Z,31.40
2019-02-09T14:52:49.295Z,26.62
2019-02-09T14:55:31.971Z,26.07
2019-02-09T14:58:09.398Z,20.65
2019-02-09T15:00:55.094Z,20.40
2019-02-09T15:03:31.976Z,19.25
2019-02-09T15:06:08.843Z,27.07
2019-02-09T15:08:45.613Z,46.23
2019-02-09T15:11:22.490Z,42.33
2019-02-09T15:13:59.266Z,49.13
2019-02-09T15:16:36.044Z,47.83
2019-02-09T15:19:14.063Z,69.03
2019-02-09T15:21:50.920Z,119.60
2019-02-09T15:24:27.802Z,130.95
2019-02-09T15:27:04.574Z,122.28
2019-02-09T15:29:41.357Z,66.80
2019-02-09T15:32:18.329Z,79.25
2019-02-09T15:34:55.527Z,177.68
2019-02-09T15:37:32.296Z,244.70
2019-02-09T15:40:18.502Z,230.35
2019-02-09T15:42:55.570Z,225.22
2019-02-09T15:45:32.456Z,237.63
2019-02-09T15:48:09.229Z,207.07
2019-02-09T15:50:46.112Z,185.95
2019-02-09T15:53:22.982Z,199.70
2019-02-09T15:55:59.769Z,141.25
2019-02-09T15:58:37.546Z,57.25
2019-02-09T16:01:14.324Z,35.85
2019-02-09T16:03:51.522Z,41.90
2019-02-09T16:06:28.281Z,38.98
2019-02-09T16:09:07.228Z,36.35
2019-02-09T16:11:44.410Z,35.55
2019-02-09T16:14:21.271Z,47.17
2019-02-09T16:16:59.582Z,81.10
2019-02-09T16:19:36.340Z,70.22
2019-02-09T16:22:14.279Z,60.15
2019-02-09T16:24:51.151Z,62.45
2019-02-09T16:27:27.827Z,62.15
2019-02-09T16:30:08.416Z,42.55
2019-02-09T16:32:45.101Z,32.50
2019-02-09T16:35:24.607Z,35.88
2019-02-09T16:38:01.347Z,42.98
2019-02-09T16:40:38.212Z,43.38
2019-02-09T16:43:14.985Z,51.15
2019-02-09T16:45:51.716Z,55.30
2019-02-09T16:48:29.491Z,49.67
2019-02-09T16:51:06.210Z,47.90
2019-02-09T16:53:42.993Z,39.95
2019-02-09T16:56:19.740Z,38.05
2019-02-09T16:58:56.454Z,44.18
2019-02-09T17:01:33.175Z,42.67
2019-02-09T17:04:09.915Z,37.40
2019-02-09T17:06:46.680Z,34.53
2019-02-09T17:09:23.349Z,36.35
2019-02-09T17:12:00.685Z,37.83
2019-02-09T17:14:37.450Z,35.25
2019-02-09T17:17:14.449Z,34.53
2019-02-09T17:19:51.118Z,39.70
2019-02-09T17:22:27.887Z,35.88
2019-02-09T17:25:06.332Z,32.83
2019-02-09T17:27:43.028Z,32.40
2019-02-09T17:30:33.660Z,32.50
2019-02-09T17:33:10.330Z,31.82
2019-02-09T17:35:47.018Z,31.87
2019-02-09T17:38:23.771Z,31.65
2019-02-09T17:41:00.463Z,30.62
2019-02-09T17:43:37.157Z,29.95
2019-02-09T17:46:13.956Z,30.02
2019-02-09T17:48:50.652Z,30.85
2019-02-09T17:51:27.383Z,29.23
2019-02-09T17:54:04.078Z,30.52
2019-02-09T17:56:40.807Z,31.73
2019-02-09T17:59:17.472Z,29.82
2019-02-09T18:01:54.198Z,30.95
2019-02-09T18:04:30.876Z,29.75
2019-02-09T18:07:07.569Z,30.95
2019-02-09T18:09:44.348Z,34.05
2019-02-09T18:12:21.048Z,33.80
2019-02-09T18:14:57.824Z,35.23
2019-02-09T18:17:34.773Z,36.63
2019-02-09T18:20:16.800Z,36.75
2019-02-09T18:22:53.595Z,34.53
2019-02-09T18:25:30.295Z,34.23
2019-02-09T18:28:07.009Z,35.33
2019-02-09T18:30:43.662Z,38.48
2019-02-09T18:33:20.368Z,40.17
2019-02-09T18:35:57.014Z,40.60
2019-02-09T18:38:33.757Z,38.80
2019-02-09T18:41:10.513Z,39.18
2019-02-09T18:43:47.304Z,38.98
2019-02-09T18:46:24.003Z,37.00
2019-02-09T18:49:00.837Z,42.13
2019-02-09T18:51:38.752Z,44.40
2019-02-09T18:54:15.442Z,40.90
2019-02-09T18:56:52.147Z,40.52
2019-02-09T18:59:28.968Z,40.90
2019-02-09T19:02:05.847Z,41.40
2019-02-09T19:04:42.615Z,40.25
2019-02-09T19:07:19.391Z,43.68
2019-02-09T19:09:56.159Z,39.78
2019-02-09T19:12:32.939Z,40.63
2019-02-09T19:15:14.443Z,39.58
2019-02-09T19:17:51.131Z,43.60
2019-02-09T19:20:41.084Z,39.60
2019-02-09T19:23:17.884Z,40.10
2019-02-09T19:25:54.642Z,37.13
2019-02-09T19:28:31.379Z,35.28
2019-02-09T19:31:08.448Z,38.08
2019-02-09T19:33:45.189Z,36.28
2019-02-09T19:36:21.952Z,38.48
2019-02-09T19:38:58.719Z,34.63
2019-02-09T19:41:35.589Z,35.63
2019-02-09T19:44:12.288Z,37.67
2019-02-09T19:46:48.955Z,38.25
2019-02-09T19:49:25.677Z,37.17
2019-02-09T19:52:02.410Z,40.33
2019-02-09T19:54:39.123Z,39.78
2019-02-09T19:57:15.836Z,45.08
2019-02-09T19:59:52.582Z,40.48
2019-02-09T20:02:29.526Z,37.95
2019-02-09T20:05:08.647Z,38.98
2019-02-09T20:07:45.394Z,38.23
2019-02-09T20:10:26.543Z,38.57
2019-02-09T20:13:07.428Z,36.05
2019-02-09T20:15:51.250Z,33.18
2019-02-09T20:18:36.586Z,34.95
2019-02-09T20:21:20.905Z,33.40
2019-02-09T20:24:06.282Z,32.80
2019-02-09T20:26:52.688Z,34.25
2019-02-09T20:29:36.814Z,33.58
2019-02-09T20:32:20.914Z,33.10
2019-02-09T20:35:05.688Z,32.13
2019-02-09T20:37:51.365Z,34.03
2019-02-09T20:40:52.010Z,33.25
2019-02-09T20:43:35.055Z,33.25
2019-02-09T20:46:17.623Z,33.13
2019-02-09T20:49:00.848Z,33.15
2019-02-09T20:51:44.306Z,31.05
2019-02-09T20:54:29.648Z,32.17
2019-02-09T20:57:12.142Z,32.15
2019-02-09T20:59:55.315Z,31.87
2019-02-09T21:02:40.145Z,30.40
2019-02-09T21:05:22.140Z,31.07
2019-02-09T21:08:06.162Z,32.70
2019-02-09T21:10:50.901Z,30.72
2019-02-09T21:13:33.511Z,33.58
2019-02-09T21:16:16.508Z,31.85
2019-02-09T21:18:58.770Z,31.95
2019-02-09T21:21:41.267Z,31.45
2019-02-09T21:24:24.236Z,33.20
2019-02-09T21:27:09.628Z,34.67
2019-02-09T21:29:50.958Z,32.45
2019-02-09T21:32:40.140Z,31.20
2019-02-09T21:35:21.488Z,31.45
2019-02-09T21:38:03.454Z,33.28
2019-02-09T21:40:47.662Z,33.70
2019-02-09T21:43:33.122Z,38.75
2019-02-09T21:46:19.809Z,36.08
2019-02-09T21:49:00.260Z,34.38
2019-02-09T21:51:42.636Z,34.95
2019-02-09T21:54:30.275Z,36.05
2019-02-09T21:57:13.567Z,39.05
2019-02-09T21:59:54.799Z,47.60
2019-02-09T22:02:47.816Z,73.42
2019-02-09T22:05:20.940Z,89.10
2019-02-09T22:08:00.533Z,37.80
2019-02-09T22:10:41.335Z,39.00
2019-02-09T22:13:24.243Z,33.88
2019-02-09T22:16:09.697Z,44.45
2019-02-09T22:18:49.930Z,37.15
2019-02-09T22:21:29.328Z,43.92
2019-02-09T22:24:14.822Z,40.70
2019-02-09T22:27:01.573Z,38.67
2019-02-09T22:29:43.462Z,43.00
2019-02-09T22:32:27.788Z,46.35
2019-02-09T22:35:14.822Z,43.55
2019-02-09T22:37:58.482Z,50.98
2019-02-09T22:40:46.430Z,45.65
2019-02-09T22:43:30.402Z,48.87
2019-02-09T22:46:14.959Z,43.33
2019-02-09T22:49:00.191Z,49.18
2019-02-09T22:51:41.480Z,44.27
2019-02-09T22:54:23.981Z,40.50
2019-02-09T22:57:09.340Z,34.70
2019-02-09T22:59:52.233Z,36.50
2019-02-09T23:02:35.076Z,40.55
2019-02-09T23:05:55.967Z,31.62
2019-02-09T23:08:43.184Z,38.17
2019-02-09T23:11:26.387Z,39.80
2019-02-09T23:14:08.511Z,40.88
2019-02-09T23:16:56.770Z,39.98
2019-02-09T23:19:36.618Z,33.73
2019-02-09T23:22:21.478Z,42.67
2019-02-09T23:25:04.614Z,40.15
2019-02-09T23:27:49.073Z,37.05
2019-02-09T23:30:31.262Z,40.43
2019-02-09T23:33:16.135Z,38.58
2019-02-09T23:35:57.729Z,38.38
2019-02-09T23:38:44.328Z,38.78
2019-02-09T23:41:29.413Z,38.42
2019-02-09T23:44:13.021Z,38.13
2019-02-09T23:46:55.832Z,39.80
2019-02-09T23:49:39.091Z,37.35
2019-02-09T23:52:23.433Z,35.60
2019-02-09T23:55:09.061Z,36.48
2019-02-09T23:57:52.857Z,38.58
